sensor_id;sensor_type;location;lat;lon;timestamp;P1;durP1;ratioP1;P2;durP2;ratioP2
80101;SDS011;69407;44.966;19.622;2024-02-14T00:00:10;10.73;;;5.40;;
80101;SDS011;69407;44.966;19.622;2024-02-14T00:02:47;12.02;;;6.22;;
80101;SDS011;69407;44.966;19.622;2024-02-14T00:05:16;15.00;;;7.70;;
80101;SDS011;69407;44.966;19.622;2024-02-14T00:07:42;12.25;;;6.30;;
80101;SDS011;69407;44.966;19.622;2024-02-14T00:10:08;12.15;;;6.63;;
80101;SDS011;69407;44.966;19.622;2024-02-14T00:12:34;13.27;;;7.15;;
80101;SDS011;69407;44.966;19.622;2024-02-14T00:15:04;11.60;;;6.13;;
80101;SDS011;69407;44.966;19.622;2024-02-14T00:17:32;9.07;;;5.25;;
80101;SDS011;69407;44.966;19.622;2024-02-14T00:19:58;10.10;;;5.97;;
80101;SDS011;69407;44.966;19.622;2024-02-14T00:22:24;10.95;;;6.30;;
80101;SDS011;69407;44.966;19.622;2024-02-14T00:24:49;11.90;;;6.00;;
80101;SDS011;69407;44.966;19.622;2024-02-14T00:27:15;9.05;;;6.00;;
80101;SDS011;69407;44.966;19.622;2024-02-14T00:29:42;10.68;;;6.45;;
80101;SDS011;69407;44.966;19.622;2024-02-14T00:32:10;9.85;;;5.38;;
80101;SDS011;69407;44.966;19.622;2024-02-14T00:34:36;8.75;;;5.25;;
80101;SDS011;69407;44.966;19.622;2024-02-14T00:37:02;9.68;;;5.53;;
80101;SDS011;69407;44.966;19.622;2024-02-14T00:39:27;9.10;;;5.43;;
80101;SDS011;69407;44.966;19.622;2024-02-14T00:41:53;8.50;;;5.10;;
80101;SDS011;69407;44.966;19.622;2024-02-14T00:44:19;10.00;;;5.68;;
80101;SDS011;69407;44.966;19.622;2024-02-14T00:46:45;10.27;;;6.40;;
80101;SDS011;69407;44.966;19.622;2024-02-14T00:49:11;12.27;;;6.15;;
80101;SDS011;69407;44.966;19.622;2024-02-14T00:51:38;12.35;;;6.60;;
80101;SDS011;69407;44.966;19.622;2024-02-14T00:54:05;11.02;;;5.85;;
80101;SDS011;69407;44.966;19.622;2024-02-14T00:56:30;7.57;;;5.00;;
80101;SDS011;69407;44.966;19.622;2024-02-14T00:58:56;8.93;;;5.78;;
80101;SDS011;69407;44.966;19.622;2024-02-14T01:01:21;14.48;;;7.78;;
80101;SDS011;69407;44.966;19.622;2024-02-14T01:03:47;13.63;;;7.22;;
80101;SDS011;69407;44.966;19.622;2024-02-14T01:06:13;39.45;;;16.33;;
80101;SDS011;69407;44.966;19.622;2024-02-14T01:08:39;82.63;;;27.88;;
80101;SDS011;69407;44.966;19.622;2024-02-14T01:11:06;47.47;;;16.08;;
80101;SDS011;69407;44.966;19.622;2024-02-14T01:13:32;26.77;;;11.00;;
80101;SDS011;69407;44.966;19.622;2024-02-14T01:15:57;13.65;;;6.22;;
80101;SDS011;69407;44.966;19.622;2024-02-14T01:18:23;11.48;;;5.80;;
80101;SDS011;69407;44.966;19.622;2024-02-14T01:20:49;9.82;;;5.78;;
80101;SDS011;69407;44.966;19.622;2024-02-14T01:23:14;10.23;;;5.40;;
80101;SDS011;69407;44.966;19.622;2024-02-14T01:25:40;10.60;;;5.13;;
80101;SDS011;69407;44.966;19.622;2024-02-14T01:28:07;13.60;;;6.05;;
80101;SDS011;69407;44.966;19.622;2024-02-14T01:30:34;45.45;;;18.30;;
80101;SDS011;69407;44.966;19.622;2024-02-14T01:33:01;65.90;;;33.10;;
80101;SDS011;69407;44.966;19.622;2024-02-14T01:35:29;32.45;;;20.65;;
80101;SDS011;69407;44.966;19.622;2024-02-14T01:37:55;18.67;;;10.45;;
80101;SDS011;69407;44.966;19.622;2024-02-14T01:40:20;13.38;;;6.40;;
80101;SDS011;69407;44.966;19.622;2024-02-14T01:42:46;10.88;;;6.45;;
80101;SDS011;69407;44.966;19.622;2024-02-14T01:45:13;12.23;;;7.63;;
80101;SDS011;69407;44.966;19.622;2024-02-14T01:47:38;13.75;;;7.18;;
80101;SDS011;69407;44.966;19.622;2024-02-14T01:50:06;14.80;;;7.20;;
80101;SDS011;69407;44.966;19.622;2024-02-14T01:52:37;13.63;;;7.53;;
80101;SDS011;69407;44.966;19.622;2024-02-14T01:55:04;13.73;;;7.32;;
80101;SDS011;69407;44.966;19.622;2024-02-14T01:57:31;14.15;;;8.20;;
80101;SDS011;69407;44.966;19.622;2024-02-14T01:59:59;13.27;;;7.55;;
80101;SDS011;69407;44.966;19.622;2024-02-14T02:02:32;13.27;;;6.97;;
80101;SDS011;69407;44.966;19.622;2024-02-14T02:05:01;10.45;;;6.63;;
80101;SDS011;69407;44.966;19.622;2024-02-14T02:07:27;12.85;;;6.10;;
80101;SDS011;69407;44.966;19.622;2024-02-14T02:09:52;10.48;;;5.53;;
80101;SDS011;69407;44.966;19.622;2024-02-14T02:12:18;10.65;;;5.93;;
80101;SDS011;69407;44.966;19.622;2024-02-14T02:14:43;9.85;;;5.97;;
80101;SDS011;69407;44.966;19.622;2024-02-14T02:17:09;12.15;;;6.07;;
80101;SDS011;69407;44.966;19.622;2024-02-14T02:19:36;15.27;;;6.55;;
80101;SDS011;69407;44.966;19.622;2024-02-14T02:22:02;11.48;;;6.10;;
80101;SDS011;69407;44.966;19.622;2024-02-14T02:24:28;8.45;;;5.75;;
80101;SDS011;69407;44.966;19.622;2024-02-14T02:26:54;8.70;;;4.93;;
80101;SDS011;69407;44.966;19.622;2024-02-14T02:29:21;8.85;;;4.80;;
80101;SDS011;69407;44.966;19.622;2024-02-14T02:31:47;10.95;;;5.38;;
80101;SDS011;69407;44.966;19.622;2024-02-14T02:34:13;10.25;;;5.63;;
80101;SDS011;69407;44.966;19.622;2024-02-14T02:36:38;8.32;;;5.47;;
80101;SDS011;69407;44.966;19.622;2024-02-14T02:39:05;9.60;;;5.50;;
80101;SDS011;69407;44.966;19.622;2024-02-14T02:41:31;13.35;;;5.82;;
80101;SDS011;69407;44.966;19.622;2024-02-14T02:43:57;10.25;;;5.82;;
80101;SDS011;69407;44.966;19.622;2024-02-14T02:46:22;8.85;;;5.60;;
80101;SDS011;69407;44.966;19.622;2024-02-14T02:48:48;12.23;;;5.90;;
80101;SDS011;69407;44.966;19.622;2024-02-14T02:51:17;9.32;;;5.20;;
80101;SDS011;69407;44.966;19.622;2024-02-14T02:56:08;9.65;;;4.85;;
80101;SDS011;69407;44.966;19.622;2024-02-14T02:58:33;10.98;;;5.88;;
80101;SDS011;69407;44.966;19.622;2024-02-14T03:00:59;9.30;;;5.03;;
80101;SDS011;69407;44.966;19.622;2024-02-14T03:03:24;9.25;;;5.68;;
80101;SDS011;69407;44.966;19.622;2024-02-14T03:05:52;8.77;;;4.45;;
80101;SDS011;69407;44.966;19.622;2024-02-14T03:08:20;11.50;;;4.70;;
80101;SDS011;69407;44.966;19.622;2024-02-14T03:10:46;8.88;;;5.47;;
80101;SDS011;69407;44.966;19.622;2024-02-14T03:13:12;9.07;;;5.65;;
80101;SDS011;69407;44.966;19.622;2024-02-14T03:15:38;7.50;;;5.40;;
80101;SDS011;69407;44.966;19.622;2024-02-14T03:18:03;9.43;;;4.85;;
80101;SDS011;69407;44.966;19.622;2024-02-14T03:20:33;13.90;;;6.45;;
80101;SDS011;69407;44.966;19.622;2024-02-14T03:23:00;15.85;;;7.57;;
80101;SDS011;69407;44.966;19.622;2024-02-14T03:25:25;11.95;;;7.45;;
80101;SDS011;69407;44.966;19.622;2024-02-14T03:27:51;11.13;;;5.97;;
80101;SDS011;69407;44.966;19.622;2024-02-14T03:30:18;10.65;;;5.65;;
80101;SDS011;69407;44.966;19.622;2024-02-14T03:32:48;8.27;;;5.28;;
80101;SDS011;69407;44.966;19.622;2024-02-14T03:35:14;9.10;;;5.03;;
80101;SDS011;69407;44.966;19.622;2024-02-14T03:37:41;9.32;;;5.00;;
80101;SDS011;69407;44.966;19.622;2024-02-14T03:40:07;10.90;;;5.72;;
80101;SDS011;69407;44.966;19.622;2024-02-14T03:42:34;10.98;;;6.65;;
80101;SDS011;69407;44.966;19.622;2024-02-14T03:44:59;11.02;;;7.18;;
80101;SDS011;69407;44.966;19.622;2024-02-14T03:47:33;26.92;;;13.07;;
80101;SDS011;69407;44.966;19.622;2024-02-14T03:49:59;17.67;;;9.32;;
80101;SDS011;69407;44.966;19.622;2024-02-14T03:52:25;15.13;;;7.70;;
80101;SDS011;69407;44.966;19.622;2024-02-14T03:54:51;11.13;;;6.70;;
80101;SDS011;69407;44.966;19.622;2024-02-14T03:57:17;11.00;;;6.22;;
80101;SDS011;69407;44.966;19.622;2024-02-14T03:59:43;11.48;;;6.57;;
80101;SDS011;69407;44.966;19.622;2024-02-14T04:02:09;14.50;;;7.82;;
80101;SDS011;69407;44.966;19.622;2024-02-14T04:04:38;11.93;;;6.57;;
80101;SDS011;69407;44.966;19.622;2024-02-14T04:07:07;11.98;;;6.45;;
80101;SDS011;69407;44.966;19.622;2024-02-14T04:09:36;14.63;;;7.57;;
80101;SDS011;69407;44.966;19.622;2024-02-14T04:12:01;13.40;;;7.60;;
80101;SDS011;69407;44.966;19.622;2024-02-14T04:14:27;12.35;;;7.00;;
80101;SDS011;69407;44.966;19.622;2024-02-14T04:16:52;11.68;;;6.35;;
80101;SDS011;69407;44.966;19.622;2024-02-14T04:19:18;13.90;;;6.78;;
80101;SDS011;69407;44.966;19.622;2024-02-14T04:21:43;15.73;;;7.57;;
80101;SDS011;69407;44.966;19.622;2024-02-14T04:24:09;14.45;;;6.63;;
80101;SDS011;69407;44.966;19.622;2024-02-14T04:26:35;12.98;;;6.30;;
80101;SDS011;69407;44.966;19.622;2024-02-14T04:29:00;10.50;;;6.40;;
80101;SDS011;69407;44.966;19.622;2024-02-14T04:31:26;8.43;;;5.05;;
80101;SDS011;69407;44.966;19.622;2024-02-14T04:33:57;9.13;;;5.05;;
80101;SDS011;69407;44.966;19.622;2024-02-14T04:36:23;10.68;;;5.60;;
80101;SDS011;69407;44.966;19.622;2024-02-14T04:38:49;16.05;;;6.88;;
80101;SDS011;69407;44.966;19.622;2024-02-14T04:41:15;15.95;;;7.10;;
80101;SDS011;69407;44.966;19.622;2024-02-14T04:43:41;13.60;;;5.97;;
80101;SDS011;69407;44.966;19.622;2024-02-14T04:46:07;13.13;;;5.55;;
80101;SDS011;69407;44.966;19.622;2024-02-14T04:48:33;14.93;;;6.38;;
80101;SDS011;69407;44.966;19.622;2024-02-14T04:51:00;12.55;;;6.20;;
80101;SDS011;69407;44.966;19.622;2024-02-14T04:53:25;13.95;;;6.80;;
80101;SDS011;69407;44.966;19.622;2024-02-14T04:55:51;13.70;;;6.32;;
80101;SDS011;69407;44.966;19.622;2024-02-14T04:58:17;11.75;;;5.65;;
80101;SDS011;69407;44.966;19.622;2024-02-14T05:00:42;13.57;;;7.32;;
80101;SDS011;69407;44.966;19.622;2024-02-14T05:03:07;7.00;;;4.55;;
80101;SDS011;69407;44.966;19.622;2024-02-14T05:05:35;11.27;;;5.47;;
80101;SDS011;69407;44.966;19.622;2024-02-14T05:08:01;9.57;;;5.70;;
80101;SDS011;69407;44.966;19.622;2024-02-14T05:10:27;7.45;;;4.85;;
80101;SDS011;69407;44.966;19.622;2024-02-14T05:12:53;9.98;;;4.90;;
80101;SDS011;69407;44.966;19.622;2024-02-14T05:15:19;12.27;;;5.22;;
80101;SDS011;69407;44.966;19.622;2024-02-14T05:17:45;9.70;;;5.35;;
80101;SDS011;69407;44.966;19.622;2024-02-14T05:20:10;11.88;;;6.20;;
80101;SDS011;69407;44.966;19.622;2024-02-14T05:22:37;16.05;;;8.27;;
80101;SDS011;69407;44.966;19.622;2024-02-14T05:25:03;9.63;;;6.13;;
80101;SDS011;69407;44.966;19.622;2024-02-14T05:27:34;11.10;;;6.30;;
80101;SDS011;69407;44.966;19.622;2024-02-14T05:29:59;9.30;;;6.03;;
80101;SDS011;69407;44.966;19.622;2024-02-14T05:32:25;11.05;;;5.68;;
80101;SDS011;69407;44.966;19.622;2024-02-14T05:34:50;12.18;;;5.90;;
80101;SDS011;69407;44.966;19.622;2024-02-14T05:37:16;10.25;;;6.03;;
80101;SDS011;69407;44.966;19.622;2024-02-14T05:39:41;12.27;;;7.18;;
80101;SDS011;69407;44.966;19.622;2024-02-14T05:42:07;15.25;;;7.97;;
80101;SDS011;69407;44.966;19.622;2024-02-14T05:44:33;11.95;;;7.18;;
80101;SDS011;69407;44.966;19.622;2024-02-14T05:46:59;19.08;;;9.30;;
80101;SDS011;69407;44.966;19.622;2024-02-14T05:49:25;15.52;;;8.63;;
80101;SDS011;69407;44.966;19.622;2024-02-14T05:51:51;14.38;;;6.00;;
80101;SDS011;69407;44.966;19.622;2024-02-14T05:54:18;14.20;;;7.80;;
80101;SDS011;69407;44.966;19.622;2024-02-14T05:56:44;18.30;;;8.98;;
80101;SDS011;69407;44.966;19.622;2024-02-14T05:59:10;30.25;;;12.45;;
80101;SDS011;69407;44.966;19.622;2024-02-14T06:01:35;23.38;;;11.38;;
80101;SDS011;69407;44.966;19.622;2024-02-14T06:04:01;30.65;;;14.63;;
80101;SDS011;69407;44.966;19.622;2024-02-14T06:06:26;38.65;;;18.17;;
80101;SDS011;69407;44.966;19.622;2024-02-14T06:08:52;36.00;;;17.23;;
80101;SDS011;69407;44.966;19.622;2024-02-14T06:11:17;46.50;;;20.08;;
80101;SDS011;69407;44.966;19.622;2024-02-14T06:13:46;70.68;;;28.05;;
80101;SDS011;69407;44.966;19.622;2024-02-14T06:16:14;50.78;;;22.27;;
80101;SDS011;69407;44.966;19.622;2024-02-14T06:18:40;43.58;;;18.20;;
80101;SDS011;69407;44.966;19.622;2024-02-14T06:21:06;36.38;;;16.13;;
80101;SDS011;69407;44.966;19.622;2024-02-14T06:23:31;55.58;;;20.90;;
80101;SDS011;69407;44.966;19.622;2024-02-14T06:25:57;107.80;;;36.58;;
80101;SDS011;69407;44.966;19.622;2024-02-14T06:28:23;97.75;;;40.13;;
80101;SDS011;69407;44.966;19.622;2024-02-14T06:30:48;45.63;;;26.10;;
80101;SDS011;69407;44.966;19.622;2024-02-14T06:33:14;39.95;;;20.77;;
80101;SDS011;69407;44.966;19.622;2024-02-14T06:35:39;33.20;;;19.10;;
80101;SDS011;69407;44.966;19.622;2024-02-14T06:38:05;22.40;;;13.35;;
80101;SDS011;69407;44.966;19.622;2024-02-14T06:40:31;24.98;;;14.20;;
80101;SDS011;69407;44.966;19.622;2024-02-14T06:42:57;33.67;;;16.77;;
80101;SDS011;69407;44.966;19.622;2024-02-14T06:45:24;40.28;;;16.08;;
80101;SDS011;69407;44.966;19.622;2024-02-14T06:47:53;37.63;;;15.85;;
80101;SDS011;69407;44.966;19.622;2024-02-14T06:50:19;45.17;;;16.50;;
80101;SDS011;69407;44.966;19.622;2024-02-14T06:52:45;39.22;;;16.58;;
80101;SDS011;69407;44.966;19.622;2024-02-14T06:55:10;34.35;;;14.85;;
80101;SDS011;69407;44.966;19.622;2024-02-14T06:57:36;27.92;;;14.68;;
80101;SDS011;69407;44.966;19.622;2024-02-14T07:00:02;16.52;;;9.82;;
80101;SDS011;69407;44.966;19.622;2024-02-14T07:02:30;11.20;;;7.38;;
80101;SDS011;69407;44.966;19.622;2024-02-14T07:04:56;15.57;;;8.00;;
80101;SDS011;69407;44.966;19.622;2024-02-14T07:07:22;16.88;;;9.68;;
80101;SDS011;69407;44.966;19.622;2024-02-14T07:09:47;16.55;;;9.20;;
80101;SDS011;69407;44.966;19.622;2024-02-14T07:12:13;17.52;;;8.70;;
80101;SDS011;69407;44.966;19.622;2024-02-14T07:14:38;16.00;;;7.97;;
80101;SDS011;69407;44.966;19.622;2024-02-14T07:17:03;12.13;;;7.32;;
80101;SDS011;69407;44.966;19.622;2024-02-14T07:19:29;13.90;;;7.90;;
80101;SDS011;69407;44.966;19.622;2024-02-14T07:21:54;18.48;;;10.45;;
80101;SDS011;69407;44.966;19.622;2024-02-14T07:24:20;14.70;;;6.50;;
80101;SDS011;69407;44.966;19.622;2024-02-14T07:26:45;11.10;;;6.15;;
80101;SDS011;69407;44.966;19.622;2024-02-14T07:29:11;12.68;;;6.45;;
80101;SDS011;69407;44.966;19.622;2024-02-14T07:31:36;20.20;;;8.98;;
80101;SDS011;69407;44.966;19.622;2024-02-14T07:34:02;11.82;;;7.68;;
80101;SDS011;69407;44.966;19.622;2024-02-14T07:36:28;11.45;;;8.10;;
80101;SDS011;69407;44.966;19.622;2024-02-14T07:38:54;17.55;;;11.75;;
80101;SDS011;69407;44.966;19.622;2024-02-14T07:41:20;14.88;;;10.32;;
80101;SDS011;69407;44.966;19.622;2024-02-14T07:43:45;10.90;;;7.35;;
80101;SDS011;69407;44.966;19.622;2024-02-14T07:46:11;10.73;;;6.70;;
80101;SDS011;69407;44.966;19.622;2024-02-14T07:48:41;9.52;;;6.90;;
80101;SDS011;69407;44.966;19.622;2024-02-14T07:51:09;10.63;;;6.45;;
80101;SDS011;69407;44.966;19.622;2024-02-14T07:53:35;7.68;;;6.30;;
80101;SDS011;69407;44.966;19.622;2024-02-14T07:56:01;8.43;;;6.82;;
80101;SDS011;69407;44.966;19.622;2024-02-14T07:58:26;11.15;;;8.30;;
80101;SDS011;69407;44.966;19.622;2024-02-14T08:00:51;12.38;;;8.70;;
80101;SDS011;69407;44.966;19.622;2024-02-14T08:03:17;13.70;;;8.43;;
80101;SDS011;69407;44.966;19.622;2024-02-14T08:05:42;12.57;;;9.48;;
80101;SDS011;69407;44.966;19.622;2024-02-14T08:08:08;14.63;;;11.00;;
80101;SDS011;69407;44.966;19.622;2024-02-14T08:10:33;13.77;;;10.43;;
80101;SDS011;69407;44.966;19.622;2024-02-14T08:12:59;11.55;;;9.10;;
80101;SDS011;69407;44.966;19.622;2024-02-14T08:15:24;15.88;;;11.98;;
80101;SDS011;69407;44.966;19.622;2024-02-14T08:17:50;10.30;;;8.45;;
80101;SDS011;69407;44.966;19.622;2024-02-14T08:20:15;13.75;;;9.80;;
80101;SDS011;69407;44.966;19.622;2024-02-14T08:22:42;16.90;;;11.80;;
80101;SDS011;69407;44.966;19.622;2024-02-14T08:25:08;14.93;;;10.82;;
80101;SDS011;69407;44.966;19.622;2024-02-14T08:27:33;11.90;;;8.98;;
80101;SDS011;69407;44.966;19.622;2024-02-14T08:29:59;10.52;;;8.48;;
80101;SDS011;69407;44.966;19.622;2024-02-14T08:32:24;10.00;;;9.00;;
80101;SDS011;69407;44.966;19.622;2024-02-14T08:34:50;10.25;;;9.15;;
80101;SDS011;69407;44.966;19.622;2024-02-14T08:37:18;20.88;;;11.20;;
80101;SDS011;69407;44.966;19.622;2024-02-14T08:39:44;17.23;;;9.85;;
80101;SDS011;69407;44.966;19.622;2024-02-14T08:42:09;9.95;;;8.95;;
80101;SDS011;69407;44.966;19.622;2024-02-14T08:44:35;10.98;;;9.25;;
80101;SDS011;69407;44.966;19.622;2024-02-14T08:47:02;12.88;;;9.57;;
80101;SDS011;69407;44.966;19.622;2024-02-14T08:49:29;12.18;;;9.43;;
80101;SDS011;69407;44.966;19.622;2024-02-14T08:51:54;21.95;;;18.65;;
80101;SDS011;69407;44.966;19.622;2024-02-14T08:54:20;12.23;;;10.93;;
80101;SDS011;69407;44.966;19.622;2024-02-14T08:56:46;10.52;;;9.38;;
80101;SDS011;69407;44.966;19.622;2024-02-14T08:59:12;17.58;;;14.65;;
80101;SDS011;69407;44.966;19.622;2024-02-14T09:01:38;13.38;;;9.85;;
80101;SDS011;69407;44.966;19.622;2024-02-14T09:04:03;11.48;;;10.15;;
80101;SDS011;69407;44.966;19.622;2024-02-14T09:06:29;15.35;;;13.43;;
80101;SDS011;69407;44.966;19.622;2024-02-14T09:08:54;17.23;;;13.27;;
80101;SDS011;69407;44.966;19.622;2024-02-14T09:11:20;11.10;;;9.65;;
80101;SDS011;69407;44.966;19.622;2024-02-14T09:13:47;15.73;;;11.60;;
80101;SDS011;69407;44.966;19.622;2024-02-14T09:16:14;16.20;;;14.43;;
80101;SDS011;69407;44.966;19.622;2024-02-14T09:18:40;12.27;;;10.98;;
80101;SDS011;69407;44.966;19.622;2024-02-14T09:21:06;9.85;;;8.85;;
80101;SDS011;69407;44.966;19.622;2024-02-14T09:23:32;13.55;;;12.15;;
80101;SDS011;69407;44.966;19.622;2024-02-14T09:25:58;10.55;;;8.82;;
80101;SDS011;69407;44.966;19.622;2024-02-14T09:28:23;9.48;;;8.43;;
80101;SDS011;69407;44.966;19.622;2024-02-14T09:30:50;9.48;;;8.57;;
80101;SDS011;69407;44.966;19.622;2024-02-14T09:33:16;9.38;;;7.72;;
80101;SDS011;69407;44.966;19.622;2024-02-14T09:35:41;8.73;;;7.25;;
80101;SDS011;69407;44.966;19.622;2024-02-14T09:38:12;7.43;;;6.53;;
80101;SDS011;69407;44.966;19.622;2024-02-14T09:40:40;8.00;;;7.20;;
80101;SDS011;69407;44.966;19.622;2024-02-14T09:43:08;8.98;;;7.78;;
80101;SDS011;69407;44.966;19.622;2024-02-14T09:45:57;11.02;;;9.20;;
80101;SDS011;69407;44.966;19.622;2024-02-14T09:48:23;11.35;;;8.65;;
80101;SDS011;69407;44.966;19.622;2024-02-14T09:50:48;10.02;;;8.00;;
80101;SDS011;69407;44.966;19.622;2024-02-14T09:53:14;9.73;;;7.40;;
80101;SDS011;69407;44.966;19.622;2024-02-14T09:55:41;12.65;;;9.27;;
80101;SDS011;69407;44.966;19.622;2024-02-14T09:58:07;11.38;;;7.43;;
80101;SDS011;69407;44.966;19.622;2024-02-14T10:00:34;11.60;;;6.95;;
80101;SDS011;69407;44.966;19.622;2024-02-14T10:03:00;9.15;;;6.72;;
80101;SDS011;69407;44.966;19.622;2024-02-14T10:05:26;12.23;;;6.80;;
80101;SDS011;69407;44.966;19.622;2024-02-14T10:07:52;10.75;;;6.93;;
80101;SDS011;69407;44.966;19.622;2024-02-14T10:10:22;8.63;;;5.60;;
80101;SDS011;69407;44.966;19.622;2024-02-14T10:12:47;8.35;;;6.28;;
80101;SDS011;69407;44.966;19.622;2024-02-14T10:15:12;12.05;;;7.30;;
80101;SDS011;69407;44.966;19.622;2024-02-14T10:17:41;9.52;;;6.68;;
80101;SDS011;69407;44.966;19.622;2024-02-14T10:20:07;12.23;;;8.15;;
80101;SDS011;69407;44.966;19.622;2024-02-14T10:22:36;10.52;;;6.97;;
80101;SDS011;69407;44.966;19.622;2024-02-14T10:25:03;15.10;;;11.60;;
80101;SDS011;69407;44.966;19.622;2024-02-14T10:27:34;12.38;;;8.27;;
80101;SDS011;69407;44.966;19.622;2024-02-14T10:30:02;11.18;;;7.10;;
80101;SDS011;69407;44.966;19.622;2024-02-14T10:32:30;9.77;;;7.95;;
80101;SDS011;69407;44.966;19.622;2024-02-14T10:34:55;9.13;;;7.20;;
80101;SDS011;69407;44.966;19.622;2024-02-14T10:37:21;16.27;;;8.77;;
80101;SDS011;69407;44.966;19.622;2024-02-14T10:39:49;12.38;;;8.00;;
80101;SDS011;69407;44.966;19.622;2024-02-14T10:42:17;16.27;;;11.98;;
80101;SDS011;69407;44.966;19.622;2024-02-14T10:44:44;11.07;;;7.03;;
80101;SDS011;69407;44.966;19.622;2024-02-14T10:47:13;10.07;;;8.07;;
80101;SDS011;69407;44.966;19.622;2024-02-14T10:49:44;9.50;;;7.68;;
80101;SDS011;69407;44.966;19.622;2024-02-14T10:52:12;15.60;;;10.48;;
80101;SDS011;69407;44.966;19.622;2024-02-14T10:54:40;13.27;;;10.00;;
80101;SDS011;69407;44.966;19.622;2024-02-14T10:57:08;13.77;;;9.90;;
80101;SDS011;69407;44.966;19.622;2024-02-14T10:59:37;16.42;;;11.77;;
80101;SDS011;69407;44.966;19.622;2024-02-14T11:02:08;8.02;;;6.20;;
80101;SDS011;69407;44.966;19.622;2024-02-14T11:04:34;12.27;;;10.75;;
80101;SDS011;69407;44.966;19.622;2024-02-14T11:06:59;10.68;;;6.75;;
80101;SDS011;69407;44.966;19.622;2024-02-14T11:09:36;11.23;;;7.60;;
80101;SDS011;69407;44.966;19.622;2024-02-14T11:12:03;8.73;;;7.45;;
80101;SDS011;69407;44.966;19.622;2024-02-14T11:14:33;8.88;;;6.47;;
80101;SDS011;69407;44.966;19.622;2024-02-14T11:17:01;7.50;;;5.93;;
80101;SDS011;69407;44.966;19.622;2024-02-14T11:19:33;11.63;;;6.57;;
80101;SDS011;69407;44.966;19.622;2024-02-14T11:22:09;7.28;;;6.10;;
80101;SDS011;69407;44.966;19.622;2024-02-14T11:24:45;7.03;;;5.70;;
80101;SDS011;69407;44.966;19.622;2024-02-14T11:27:10;6.18;;;4.88;;
80101;SDS011;69407;44.966;19.622;2024-02-14T11:29:38;9.25;;;7.40;;
80101;SDS011;69407;44.966;19.622;2024-02-14T11:32:17;9.90;;;7.18;;
80101;SDS011;69407;44.966;19.622;2024-02-14T11:34:44;12.68;;;8.00;;
80101;SDS011;69407;44.966;19.622;2024-02-14T11:37:27;10.25;;;6.28;;
80101;SDS011;69407;44.966;19.622;2024-02-14T11:39:54;10.45;;;7.65;;
80101;SDS011;69407;44.966;19.622;2024-02-14T11:42:23;8.02;;;7.07;;
80101;SDS011;69407;44.966;19.622;2024-02-14T11:44:49;8.15;;;6.93;;
80101;SDS011;69407;44.966;19.622;2024-02-14T11:47:14;10.05;;;6.07;;
80101;SDS011;69407;44.966;19.622;2024-02-14T11:49:40;7.78;;;5.65;;
80101;SDS011;69407;44.966;19.622;2024-02-14T11:52:09;7.90;;;5.30;;
80101;SDS011;69407;44.966;19.622;2024-02-14T11:54:36;7.25;;;5.90;;
80101;SDS011;69407;44.966;19.622;2024-02-14T11:57:03;11.27;;;8.43;;
80101;SDS011;69407;44.966;19.622;2024-02-14T11:59:28;7.50;;;6.32;;
80101;SDS011;69407;44.966;19.622;2024-02-14T12:01:54;8.40;;;4.07;;
80101;SDS011;69407;44.966;19.622;2024-02-14T12:04:23;7.10;;;5.00;;
80101;SDS011;69407;44.966;19.622;2024-02-14T12:06:49;5.35;;;4.40;;
80101;SDS011;69407;44.966;19.622;2024-02-14T12:09:15;8.02;;;6.10;;
80101;SDS011;69407;44.966;19.622;2024-02-14T12:11:41;8.73;;;6.75;;
80101;SDS011;69407;44.966;19.622;2024-02-14T12:14:11;8.43;;;5.50;;
80101;SDS011;69407;44.966;19.622;2024-02-14T12:16:37;6.50;;;4.60;;
80101;SDS011;69407;44.966;19.622;2024-02-14T12:19:14;8.73;;;5.18;;
80101;SDS011;69407;44.966;19.622;2024-02-14T12:21:41;7.65;;;4.38;;
80101;SDS011;69407;44.966;19.622;2024-02-14T12:24:10;4.80;;;4.03;;
80101;SDS011;69407;44.966;19.622;2024-02-14T12:26:39;6.93;;;4.75;;
80101;SDS011;69407;44.966;19.622;2024-02-14T12:29:06;8.90;;;6.55;;
80101;SDS011;69407;44.966;19.622;2024-02-14T12:31:33;8.70;;;6.50;;
80101;SDS011;69407;44.966;19.622;2024-02-14T12:34:00;8.35;;;6.13;;
80101;SDS011;69407;44.966;19.622;2024-02-14T12:38:56;10.30;;;5.00;;
80101;SDS011;69407;44.966;19.622;2024-02-14T12:41:22;7.25;;;5.32;;
80101;SDS011;69407;44.966;19.622;2024-02-14T12:43:57;7.65;;;5.57;;
80101;SDS011;69407;44.966;19.622;2024-02-14T12:46:25;11.35;;;8.88;;
80101;SDS011;69407;44.966;19.622;2024-02-14T12:48:50;10.35;;;6.78;;
80101;SDS011;69407;44.966;19.622;2024-02-14T12:51:16;6.15;;;4.60;;
80101;SDS011;69407;44.966;19.622;2024-02-14T12:53:41;10.20;;;6.80;;
80101;SDS011;69407;44.966;19.622;2024-02-14T12:56:07;4.68;;;3.40;;
80101;SDS011;69407;44.966;19.622;2024-02-14T12:58:33;9.43;;;6.95;;
80101;SDS011;69407;44.966;19.622;2024-02-14T13:00:59;6.70;;;5.07;;
80101;SDS011;69407;44.966;19.622;2024-02-14T13:03:26;9.35;;;7.03;;
80101;SDS011;69407;44.966;19.622;2024-02-14T13:05:52;11.35;;;8.13;;
80101;SDS011;69407;44.966;19.622;2024-02-14T13:08:20;11.27;;;5.90;;
80101;SDS011;69407;44.966;19.622;2024-02-14T13:10:46;10.05;;;7.03;;
80101;SDS011;69407;44.966;19.622;2024-02-14T13:13:12;8.43;;;6.50;;
80101;SDS011;69407;44.966;19.622;2024-02-14T13:15:39;9.90;;;5.97;;
80101;SDS011;69407;44.966;19.622;2024-02-14T13:18:05;8.45;;;6.03;;
80101;SDS011;69407;44.966;19.622;2024-02-14T13:20:31;8.40;;;6.90;;
80101;SDS011;69407;44.966;19.622;2024-02-14T13:22:56;7.97;;;6.30;;
80101;SDS011;69407;44.966;19.622;2024-02-14T13:25:22;8.80;;;5.25;;
80101;SDS011;69407;44.966;19.622;2024-02-14T13:27:48;8.10;;;6.28;;
80101;SDS011;69407;44.966;19.622;2024-02-14T13:30:13;7.20;;;5.30;;
80101;SDS011;69407;44.966;19.622;2024-02-14T13:32:39;15.52;;;10.02;;
80101;SDS011;69407;44.966;19.622;2024-02-14T13:35:04;20.42;;;15.57;;
80101;SDS011;69407;44.966;19.622;2024-02-14T13:39:58;9.45;;;7.28;;
80101;SDS011;69407;44.966;19.622;2024-02-14T13:42:23;8.38;;;5.22;;
80101;SDS011;69407;44.966;19.622;2024-02-14T13:44:49;11.45;;;7.07;;
80101;SDS011;69407;44.966;19.622;2024-02-14T13:47:17;10.57;;;7.60;;
80101;SDS011;69407;44.966;19.622;2024-02-14T13:49:44;8.63;;;6.00;;
80101;SDS011;69407;44.966;19.622;2024-02-14T13:52:09;8.25;;;4.93;;
80101;SDS011;69407;44.966;19.622;2024-02-14T13:54:35;6.75;;;5.00;;
80101;SDS011;69407;44.966;19.622;2024-02-14T13:57:01;7.30;;;4.88;;
80101;SDS011;69407;44.966;19.622;2024-02-14T13:59:27;7.05;;;4.60;;
80101;SDS011;69407;44.966;19.622;2024-02-14T14:01:53;6.63;;;4.78;;
80101;SDS011;69407;44.966;19.622;2024-02-14T14:04:19;9.73;;;5.53;;
80101;SDS011;69407;44.966;19.622;2024-02-14T14:06:45;9.52;;;5.90;;
80101;SDS011;69407;44.966;19.622;2024-02-14T14:09:12;7.55;;;4.40;;
80101;SDS011;69407;44.966;19.622;2024-02-14T14:11:39;7.65;;;5.10;;
80101;SDS011;69407;44.966;19.622;2024-02-14T14:14:05;11.45;;;6.85;;
80101;SDS011;69407;44.966;19.622;2024-02-14T14:16:31;6.88;;;4.97;;
80101;SDS011;69407;44.966;19.622;2024-02-14T14:18:58;7.07;;;5.53;;
80101;SDS011;69407;44.966;19.622;2024-02-14T14:21:24;6.40;;;5.28;;
80101;SDS011;69407;44.966;19.622;2024-02-14T14:23:49;26.35;;;16.65;;
80101;SDS011;69407;44.966;19.622;2024-02-14T14:26:15;10.52;;;6.05;;